sensor_id;sensor_type;location;lat;lon;timestamp;P1;durP1;ratioP1;P2;durP2;ratioP2
52854;SDS011;38719;51.418;7.286;2023-07-24T00:01:18;4.30;;;2.63;;
52854;SDS011;38719;51.418;7.286;2023-07-24T00:03:47;4.65;;;3.20;;
52854;SDS011;38719;51.418;7.286;2023-07-24T00:06:15;4.63;;;2.90;;
52854;SDS011;38719;51.418;7.286;2023-07-24T00:08:42;3.53;;;2.63;;
52854;SDS011;38719;51.418;7.286;2023-07-24T00:11:10;4.95;;;3.00;;
52854;SDS011;38719;51.418;7.286;2023-07-24T00:13:37;4.38;;;3.13;;
52854;SDS011;38719;51.418;7.286;2023-07-24T00:16:08;5.35;;;3.30;;
52854;SDS011;38719;51.418;7.286;2023-07-24T00:18:36;7.05;;;3.13;;
52854;SDS011;38719;51.418;7.286;2023-07-24T00:21:05;5.78;;;3.13;;
52854;SDS011;38719;51.418;7.286;2023-07-24T00:23:32;3.95;;;2.90;;
52854;SDS011;38719;51.418;7.286;2023-07-24T00:26:00;4.85;;;2.95;;
52854;SDS011;38719;51.418;7.286;2023-07-24T00:28:28;4.68;;;2.95;;
52854;SDS011;38719;51.418;7.286;2023-07-24T00:30:55;6.20;;;3.05;;
52854;SDS011;38719;51.418;7.286;2023-07-24T00:33:23;5.32;;;2.88;;
52854;SDS011;38719;51.418;7.286;2023-07-24T00:35:51;3.70;;;2.55;;
52854;SDS011;38719;51.418;7.286;2023-07-24T00:38:24;5.13;;;3.20;;
52854;SDS011;38719;51.418;7.286;2023-07-24T00:40:51;4.50;;;3.03;;
52854;SDS011;38719;51.418;7.286;2023-07-24T00:43:19;4.18;;;2.97;;
52854;SDS011;38719;51.418;7.286;2023-07-24T00:45:47;6.72;;;3.45;;
52854;SDS011;38719;51.418;7.286;2023-07-24T00:48:15;4.30;;;3.08;;
52854;SDS011;38719;51.418;7.286;2023-07-24T00:50:43;4.18;;;2.70;;
52854;SDS011;38719;51.418;7.286;2023-07-24T00:53:12;4.82;;;2.78;;
52854;SDS011;38719;51.418;7.286;2023-07-24T00:55:42;6.05;;;3.10;;
52854;SDS011;38719;51.418;7.286;2023-07-24T00:58:10;3.83;;;3.10;;
52854;SDS011;38719;51.418;7.286;2023-07-24T01:00:39;6.03;;;2.70;;
52854;SDS011;38719;51.418;7.286;2023-07-24T01:03:08;5.10;;;3.05;;
52854;SDS011;38719;51.418;7.286;2023-07-24T01:05:36;3.55;;;2.78;;
52854;SDS011;38719;51.418;7.286;2023-07-24T01:08:03;8.48;;;3.13;;
52854;SDS011;38719;51.418;7.286;2023-07-24T01:10:31;3.85;;;2.70;;
52854;SDS011;38719;51.418;7.286;2023-07-24T01:13:02;4.57;;;2.60;;
52854;SDS011;38719;51.418;7.286;2023-07-24T01:18:03;4.57;;;2.90;;
52854;SDS011;38719;51.418;7.286;2023-07-24T01:20:36;6.38;;;2.60;;
52854;SDS011;38719;51.418;7.286;2023-07-24T01:23:13;3.33;;;2.60;;
52854;SDS011;38719;51.418;7.286;2023-07-24T01:25:54;5.22;;;3.88;;
52854;SDS011;38719;51.418;7.286;2023-07-24T01:28:24;6.05;;;2.60;;
52854;SDS011;38719;51.418;7.286;2023-07-24T01:30:52;3.10;;;2.50;;
52854;SDS011;38719;51.418;7.286;2023-07-24T01:33:20;5.43;;;3.03;;
52854;SDS011;38719;51.418;7.286;2023-07-24T01:35:49;5.30;;;2.70;;
52854;SDS011;38719;51.418;7.286;2023-07-24T01:38:21;5.38;;;2.85;;
52854;SDS011;38719;51.418;7.286;2023-07-24T01:40:51;3.65;;;2.58;;
52854;SDS011;38719;51.418;7.286;2023-07-24T01:43:22;5.50;;;2.92;;
52854;SDS011;38719;51.418;7.286;2023-07-24T01:45:53;3.47;;;2.83;;
52854;SDS011;38719;51.418;7.286;2023-07-24T01:48:21;4.47;;;3.03;;
52854;SDS011;38719;51.418;7.286;2023-07-24T01:50:49;3.38;;;2.80;;
52854;SDS011;38719;51.418;7.286;2023-07-24T01:53:17;4.70;;;2.95;;
52854;SDS011;38719;51.418;7.286;2023-07-24T01:55:44;4.53;;;3.15;;
52854;SDS011;38719;51.418;7.286;2023-07-24T01:58:12;3.90;;;2.97;;
52854;SDS011;38719;51.418;7.286;2023-07-24T02:00:41;10.75;;;3.53;;
52854;SDS011;38719;51.418;7.286;2023-07-24T02:03:09;3.72;;;2.95;;
52854;SDS011;38719;51.418;7.286;2023-07-24T02:05:36;7.32;;;2.78;;
52854;SDS011;38719;51.418;7.286;2023-07-24T02:08:04;4.88;;;3.15;;
52854;SDS011;38719;51.418;7.286;2023-07-24T02:10:31;5.38;;;2.92;;
52854;SDS011;38719;51.418;7.286;2023-07-24T02:12:59;4.32;;;3.10;;
52854;SDS011;38719;51.418;7.286;2023-07-24T02:15:27;4.28;;;3.17;;
52854;SDS011;38719;51.418;7.286;2023-07-24T02:17:56;5.78;;;3.13;;
52854;SDS011;38719;51.418;7.286;2023-07-24T02:20:23;3.47;;;2.70;;
52854;SDS011;38719;51.418;7.286;2023-07-24T02:22:51;5.45;;;3.30;;
52854;SDS011;38719;51.418;7.286;2023-07-24T02:25:18;5.88;;;2.90;;
52854;SDS011;38719;51.418;7.286;2023-07-24T02:27:46;4.53;;;3.30;;
52854;SDS011;38719;51.418;7.286;2023-07-24T02:30:13;5.90;;;4.32;;
52854;SDS011;38719;51.418;7.286;2023-07-24T02:32:41;4.65;;;3.35;;
52854;SDS011;38719;51.418;7.286;2023-07-24T02:35:10;5.18;;;3.30;;
52854;SDS011;38719;51.418;7.286;2023-07-24T02:37:38;6.78;;;3.20;;
52854;SDS011;38719;51.418;7.286;2023-07-24T02:40:06;4.63;;;3.50;;
52854;SDS011;38719;51.418;7.286;2023-07-24T02:42:35;5.18;;;3.60;;
52854;SDS011;38719;51.418;7.286;2023-07-24T02:45:02;5.68;;;3.40;;
52854;SDS011;38719;51.418;7.286;2023-07-24T02:47:31;6.28;;;3.83;;
52854;SDS011;38719;51.418;7.286;2023-07-24T02:49:59;7.78;;;3.55;;
52854;SDS011;38719;51.418;7.286;2023-07-24T02:52:28;5.70;;;3.58;;
52854;SDS011;38719;51.418;7.286;2023-07-24T02:54:55;4.80;;;3.42;;
52854;SDS011;38719;51.418;7.286;2023-07-24T02:57:23;4.82;;;3.30;;
52854;SDS011;38719;51.418;7.286;2023-07-24T02:59:50;7.15;;;3.75;;
52854;SDS011;38719;51.418;7.286;2023-07-24T03:02:18;5.13;;;3.40;;
52854;SDS011;38719;51.418;7.286;2023-07-24T03:04:46;6.57;;;3.88;;
52854;SDS011;38719;51.418;7.286;2023-07-24T03:07:13;4.95;;;3.20;;
52854;SDS011;38719;51.418;7.286;2023-07-24T03:09:42;6.93;;;3.67;;
52854;SDS011;38719;51.418;7.286;2023-07-24T03:12:10;7.15;;;3.67;;
52854;SDS011;38719;51.418;7.286;2023-07-24T03:14:37;7.43;;;4.22;;
52854;SDS011;38719;51.418;7.286;2023-07-24T03:17:05;4.60;;;3.42;;
52854;SDS011;38719;51.418;7.286;2023-07-24T03:19:33;7.55;;;3.42;;
52854;SDS011;38719;51.418;7.286;2023-07-24T03:22:00;5.60;;;3.42;;
52854;SDS011;38719;51.418;7.286;2023-07-24T03:24:28;6.40;;;3.50;;
52854;SDS011;38719;51.418;7.286;2023-07-24T03:26:57;5.40;;;3.60;;
52854;SDS011;38719;51.418;7.286;2023-07-24T03:29:26;7.50;;;3.53;;
52854;SDS011;38719;51.418;7.286;2023-07-24T03:31:53;4.88;;;3.58;;
52854;SDS011;38719;51.418;7.286;2023-07-24T03:34:21;7.60;;;3.83;;
52854;SDS011;38719;51.418;7.286;2023-07-24T03:36:49;8.63;;;4.00;;
52854;SDS011;38719;51.418;7.286;2023-07-24T03:39:17;5.78;;;3.90;;
52854;SDS011;38719;51.418;7.286;2023-07-24T03:41:44;6.65;;;4.20;;
52854;SDS011;38719;51.418;7.286;2023-07-24T03:44:13;6.50;;;3.83;;
52854;SDS011;38719;51.418;7.286;2023-07-24T03:46:41;6.53;;;3.78;;
52854;SDS011;38719;51.418;7.286;2023-07-24T03:49:09;6.15;;;3.92;;
52854;SDS011;38719;51.418;7.286;2023-07-24T03:51:37;9.48;;;4.15;;
52854;SDS011;38719;51.418;7.286;2023-07-24T03:54:04;5.05;;;3.65;;
52854;SDS011;38719;51.418;7.286;2023-07-24T03:56:32;6.28;;;3.60;;
52854;SDS011;38719;51.418;7.286;2023-07-24T03:58:59;5.35;;;4.00;;
52854;SDS011;38719;51.418;7.286;2023-07-24T04:01:28;8.40;;;3.60;;
52854;SDS011;38719;51.418;7.286;2023-07-24T04:03:56;4.28;;;3.22;;
52854;SDS011;38719;51.418;7.286;2023-07-24T04:06:24;6.22;;;3.92;;
52854;SDS011;38719;51.418;7.286;2023-07-24T04:08:51;6.53;;;3.80;;
52854;SDS011;38719;51.418;7.286;2023-07-24T04:11:19;6.60;;;4.18;;
52854;SDS011;38719;51.418;7.286;2023-07-24T04:13:46;7.53;;;4.05;;
52854;SDS011;38719;51.418;7.286;2023-07-24T04:16:14;4.13;;;3.53;;
52854;SDS011;38719;51.418;7.286;2023-07-24T04:18:43;11.07;;;4.22;;
52854;SDS011;38719;51.418;7.286;2023-07-24T04:21:11;5.63;;;3.83;;
52854;SDS011;38719;51.418;7.286;2023-07-24T04:23:38;6.45;;;3.78;;
52854;SDS011;38719;51.418;7.286;2023-07-24T04:26:06;5.25;;;3.70;;
52854;SDS011;38719;51.418;7.286;2023-07-24T04:28:33;6.20;;;3.95;;
52854;SDS011;38719;51.418;7.286;2023-07-24T04:31:01;9.60;;;3.90;;
52854;SDS011;38719;51.418;7.286;2023-07-24T04:33:29;9.23;;;3.90;;
52854;SDS011;38719;51.418;7.286;2023-07-24T04:35:59;7.15;;;4.32;;
52854;SDS011;38719;51.418;7.286;2023-07-24T04:38:27;6.60;;;3.80;;
52854;SDS011;38719;51.418;7.286;2023-07-24T04:40:55;6.80;;;3.75;;
52854;SDS011;38719;51.418;7.286;2023-07-24T04:43:22;6.15;;;4.10;;
52854;SDS011;38719;51.418;7.286;2023-07-24T04:45:50;9.07;;;4.20;;
52854;SDS011;38719;51.418;7.286;2023-07-24T04:48:17;8.00;;;3.92;;
52854;SDS011;38719;51.418;7.286;2023-07-24T04:50:45;11.32;;;4.10;;
52854;SDS011;38719;51.418;7.286;2023-07-24T04:53:14;7.60;;;3.63;;
52854;SDS011;38719;51.418;7.286;2023-07-24T04:55:42;9.07;;;4.05;;
52854;SDS011;38719;51.418;7.286;2023-07-24T04:58:09;6.25;;;4.05;;
52854;SDS011;38719;51.418;7.286;2023-07-24T05:00:37;8.93;;;4.28;;
52854;SDS011;38719;51.418;7.286;2023-07-24T05:03:05;7.97;;;3.90;;
52854;SDS011;38719;51.418;7.286;2023-07-24T05:05:34;6.68;;;4.32;;
52854;SDS011;38719;51.418;7.286;2023-07-24T05:08:08;5.20;;;3.97;;
52854;SDS011;38719;51.418;7.286;2023-07-24T05:10:37;7.80;;;3.70;;
52854;SDS011;38719;51.418;7.286;2023-07-24T05:13:05;8.60;;;4.20;;
52854;SDS011;38719;51.418;7.286;2023-07-24T05:15:32;6.57;;;4.22;;
52854;SDS011;38719;51.418;7.286;2023-07-24T05:18:00;8.60;;;4.10;;
52854;SDS011;38719;51.418;7.286;2023-07-24T05:20:28;5.82;;;3.95;;
52854;SDS011;38719;51.418;7.286;2023-07-24T05:22:55;8.63;;;4.13;;
52854;SDS011;38719;51.418;7.286;2023-07-24T05:25:23;9.73;;;4.25;;
52854;SDS011;38719;51.418;7.286;2023-07-24T05:27:52;5.82;;;3.97;;
52854;SDS011;38719;51.418;7.286;2023-07-24T05:30:19;8.60;;;4.00;;
52854;SDS011;38719;51.418;7.286;2023-07-24T05:32:47;7.20;;;4.30;;
52854;SDS011;38719;51.418;7.286;2023-07-24T05:35:15;7.70;;;4.32;;
52854;SDS011;38719;51.418;7.286;2023-07-24T05:37:42;8.10;;;4.57;;
52854;SDS011;38719;51.418;7.286;2023-07-24T05:40:10;8.45;;;4.28;;
52854;SDS011;38719;51.418;7.286;2023-07-24T05:42:38;8.07;;;4.50;;
52854;SDS011;38719;51.418;7.286;2023-07-24T05:45:10;8.57;;;3.95;;
52854;SDS011;38719;51.418;7.286;2023-07-24T05:47:38;9.18;;;4.40;;
52854;SDS011;38719;51.418;7.286;2023-07-24T05:50:06;5.95;;;4.10;;
52854;SDS011;38719;51.418;7.286;2023-07-24T05:52:34;9.02;;;4.65;;
52854;SDS011;38719;51.418;7.286;2023-07-24T05:55:01;7.07;;;3.92;;
52854;SDS011;38719;51.418;7.286;2023-07-24T05:57:29;5.07;;;3.60;;
52854;SDS011;38719;51.418;7.286;2023-07-24T05:59:57;5.97;;;4.05;;
52854;SDS011;38719;51.418;7.286;2023-07-24T06:02:26;6.32;;;3.67;;
52854;SDS011;38719;51.418;7.286;2023-07-24T06:04:53;7.15;;;4.20;;
52854;SDS011;38719;51.418;7.286;2023-07-24T06:07:21;5.78;;;3.80;;
52854;SDS011;38719;51.418;7.286;2023-07-24T06:09:49;8.95;;;4.25;;
52854;SDS011;38719;51.418;7.286;2023-07-24T06:12:16;5.55;;;3.83;;
52854;SDS011;38719;51.418;7.286;2023-07-24T06:14:44;8.25;;;4.47;;
52854;SDS011;38719;51.418;7.286;2023-07-24T06:17:11;13.23;;;6.07;;
52854;SDS011;38719;51.418;7.286;2023-07-24T06:19:40;5.90;;;4.10;;
52854;SDS011;38719;51.418;7.286;2023-07-24T06:22:08;8.27;;;4.00;;
52854;SDS011;38719;51.418;7.286;2023-07-24T06:24:35;7.68;;;4.15;;
52854;SDS011;38719;51.418;7.286;2023-07-24T06:27:04;6.15;;;4.45;;
52854;SDS011;38719;51.418;7.286;2023-07-24T06:29:33;9.23;;;4.18;;
52854;SDS011;38719;51.418;7.286;2023-07-24T06:32:04;6.78;;;4.00;;
52854;SDS011;38719;51.418;7.286;2023-07-24T06:34:32;8.40;;;4.60;;
52854;SDS011;38719;51.418;7.286;2023-07-24T06:37:01;6.70;;;3.85;;
52854;SDS011;38719;51.418;7.286;2023-07-24T06:39:47;6.55;;;4.15;;
52854;SDS011;38719;51.418;7.286;2023-07-24T06:42:14;7.25;;;4.25;;
52854;SDS011;38719;51.418;7.286;2023-07-24T06:44:42;7.25;;;4.88;;
52854;SDS011;38719;51.418;7.286;2023-07-24T06:47:10;6.88;;;4.55;;
52854;SDS011;38719;51.418;7.286;2023-07-24T06:49:37;8.77;;;4.68;;
52854;SDS011;38719;51.418;7.286;2023-07-24T06:52:06;6.97;;;4.45;;
52854;SDS011;38719;51.418;7.286;2023-07-24T06:54:34;10.30;;;4.25;;
52854;SDS011;38719;51.418;7.286;2023-07-24T06:57:02;9.95;;;4.70;;
52854;SDS011;38719;51.418;7.286;2023-07-24T06:59:30;6.43;;;4.50;;
52854;SDS011;38719;51.418;7.286;2023-07-24T07:01:57;7.45;;;4.30;;
52854;SDS011;38719;51.418;7.286;2023-07-24T07:04:25;11.10;;;4.03;;
52854;SDS011;38719;51.418;7.286;2023-07-24T07:06:53;8.55;;;4.43;;
52854;SDS011;38719;51.418;7.286;2023-07-24T07:09:22;8.70;;;4.63;;
52854;SDS011;38719;51.418;7.286;2023-07-24T07:11:49;6.97;;;4.25;;
52854;SDS011;38719;51.418;7.286;2023-07-24T07:14:17;7.57;;;3.92;;
52854;SDS011;38719;51.418;7.286;2023-07-24T07:16:44;7.68;;;4.20;;
52854;SDS011;38719;51.418;7.286;2023-07-24T07:19:13;7.78;;;4.40;;
52854;SDS011;38719;51.418;7.286;2023-07-24T07:21:41;11.35;;;3.83;;
52854;SDS011;38719;51.418;7.286;2023-07-24T07:24:09;10.43;;;4.88;;
52854;SDS011;38719;51.418;7.286;2023-07-24T07:26:38;5.90;;;4.07;;
52854;SDS011;38719;51.418;7.286;2023-07-24T07:29:06;6.60;;;4.05;;
52854;SDS011;38719;51.418;7.286;2023-07-24T07:31:34;8.20;;;4.00;;
52854;SDS011;38719;51.418;7.286;2023-07-24T07:34:01;8.57;;;4.15;;
52854;SDS011;38719;51.418;7.286;2023-07-24T07:36:29;7.90;;;3.70;;
52854;SDS011;38719;51.418;7.286;2023-07-24T07:38:57;7.93;;;4.10;;
52854;SDS011;38719;51.418;7.286;2023-07-24T07:41:25;7.70;;;3.90;;
52854;SDS011;38719;51.418;7.286;2023-07-24T07:43:54;8.30;;;4.07;;
52854;SDS011;38719;51.418;7.286;2023-07-24T07:46:21;6.82;;;4.50;;
52854;SDS011;38719;51.418;7.286;2023-07-24T07:48:48;7.20;;;3.90;;
52854;SDS011;38719;51.418;7.286;2023-07-24T07:51:16;8.25;;;4.13;;
52854;SDS011;38719;51.418;7.286;2023-07-24T07:53:43;9.13;;;3.70;;
52854;SDS011;38719;51.418;7.286;2023-07-24T07:56:11;5.68;;;3.78;;
52854;SDS011;38719;51.418;7.286;2023-07-24T07:58:39;6.38;;;3.83;;
52854;SDS011;38719;51.418;7.286;2023-07-24T08:01:08;7.00;;;4.38;;
52854;SDS011;38719;51.418;7.286;2023-07-24T08:03:35;6.28;;;4.03;;
52854;SDS011;38719;51.418;7.286;2023-07-24T08:06:03;6.18;;;3.83;;
52854;SDS011;38719;51.418;7.286;2023-07-24T08:08:32;6.00;;;4.32;;
52854;SDS011;38719;51.418;7.286;2023-07-24T08:11:03;5.10;;;3.42;;
52854;SDS011;38719;51.418;7.286;2023-07-24T08:13:31;5.85;;;3.30;;
52854;SDS011;38719;51.418;7.286;2023-07-24T08:15:59;5.80;;;3.80;;
52854;SDS011;38719;51.418;7.286;2023-07-24T08:18:30;5.40;;;3.88;;
52854;SDS011;38719;51.418;7.286;2023-07-24T08:20:58;5.15;;;3.40;;
52854;SDS011;38719;51.418;7.286;2023-07-24T08:23:26;5.63;;;3.63;;
52854;SDS011;38719;51.418;7.286;2023-07-24T08:25:53;7.88;;;3.38;;
52854;SDS011;38719;51.418;7.286;2023-07-24T08:28:22;7.32;;;3.70;;
52854;SDS011;38719;51.418;7.286;2023-07-24T08:30:55;6.60;;;3.67;;
52854;SDS011;38719;51.418;7.286;2023-07-24T08:33:24;5.70;;;3.80;;
52854;SDS011;38719;51.418;7.286;2023-07-24T08:36:02;4.28;;;3.53;;
52854;SDS011;38719;51.418;7.286;2023-07-24T08:38:31;4.40;;;3.20;;
52854;SDS011;38719;51.418;7.286;2023-07-24T08:41:00;6.07;;;3.80;;
52854;SDS011;38719;51.418;7.286;2023-07-24T08:43:29;5.88;;;3.97;;
52854;SDS011;38719;51.418;7.286;2023-07-24T08:45:58;7.70;;;3.40;;
52854;SDS011;38719;51.418;7.286;2023-07-24T08:48:27;6.25;;;3.40;;
52854;SDS011;38719;51.418;7.286;2023-07-24T08:50:59;5.22;;;3.40;;
52854;SDS011;38719;51.418;7.286;2023-07-24T08:53:29;4.70;;;3.22;;
52854;SDS011;38719;51.418;7.286;2023-07-24T08:55:58;7.15;;;3.67;;
52854;SDS011;38719;51.418;7.286;2023-07-24T08:58:27;5.18;;;3.00;;
52854;SDS011;38719;51.418;7.286;2023-07-24T09:00:55;4.82;;;3.05;;
52854;SDS011;38719;51.418;7.286;2023-07-24T09:03:24;5.90;;;3.10;;
52854;SDS011;38719;51.418;7.286;2023-07-24T09:05:52;5.95;;;3.00;;
52854;SDS011;38719;51.418;7.286;2023-07-24T09:08:33;5.40;;;2.55;;
52854;SDS011;38719;51.418;7.286;2023-07-24T09:11:02;4.22;;;2.90;;
52854;SDS011;38719;51.418;7.286;2023-07-24T09:13:31;6.57;;;2.70;;
52854;SDS011;38719;51.418;7.286;2023-07-24T09:15:59;3.47;;;2.78;;
52854;SDS011;38719;51.418;7.286;2023-07-24T09:18:37;4.70;;;3.50;;
52854;SDS011;38719;51.418;7.286;2023-07-24T09:21:05;6.53;;;3.58;;
52854;SDS011;38719;51.418;7.286;2023-07-24T09:23:34;4.65;;;3.35;;
52854;SDS011;38719;51.418;7.286;2023-07-24T09:26:05;6.07;;;3.10;;
52854;SDS011;38719;51.418;7.286;2023-07-24T09:28:33;5.53;;;3.10;;
52854;SDS011;38719;51.418;7.286;2023-07-24T09:31:02;7.43;;;3.78;;
52854;SDS011;38719;51.418;7.286;2023-07-24T09:33:34;3.40;;;2.55;;
52854;SDS011;38719;51.418;7.286;2023-07-24T09:36:03;4.30;;;2.92;;
52854;SDS011;38719;51.418;7.286;2023-07-24T09:38:35;4.10;;;2.80;;
52854;SDS011;38719;51.418;7.286;2023-07-24T09:41:03;4.43;;;2.90;;
52854;SDS011;38719;51.418;7.286;2023-07-24T09:43:32;3.85;;;2.90;;
52854;SDS011;38719;51.418;7.286;2023-07-24T09:46:07;4.55;;;3.20;;
52854;SDS011;38719;51.418;7.286;2023-07-24T09:48:36;5.22;;;3.10;;
52854;SDS011;38719;51.418;7.286;2023-07-24T09:51:09;5.18;;;2.92;;
52854;SDS011;38719;51.418;7.286;2023-07-24T09:53:43;5.13;;;3.70;;
52854;SDS011;38719;51.418;7.286;2023-07-24T09:56:14;5.50;;;2.90;;
52854;SDS011;38719;51.418;7.286;2023-07-24T09:58:53;4.10;;;3.20;;
52854;SDS011;38719;51.418;7.286;2023-07-24T10:01:22;5.38;;;3.47;;
52854;SDS011;38719;51.418;7.286;2023-07-24T10:03:50;6.80;;;3.63;;
52854;SDS011;38719;51.418;7.286;2023-07-24T10:06:18;7.00;;;3.55;;
52854;SDS011;38719;51.418;7.286;2023-07-24T10:08:47;9.25;;;4.10;;
52854;SDS011;38719;51.418;7.286;2023-07-24T10:11:16;5.10;;;3.53;;
52854;SDS011;38719;51.418;7.286;2023-07-24T10:13:44;4.90;;;3.63;;
52854;SDS011;38719;51.418;7.286;2023-07-24T10:16:12;4.25;;;3.38;;
52854;SDS011;38719;51.418;7.286;2023-07-24T10:18:42;4.43;;;3.70;;
52854;SDS011;38719;51.418;7.286;2023-07-24T10:21:11;4.40;;;3.45;;
52854;SDS011;38719;51.418;7.286;2023-07-24T10:23:40;6.93;;;4.28;;
52854;SDS011;38719;51.418;7.286;2023-07-24T10:26:11;8.75;;;4.00;;
52854;SDS011;38719;51.418;7.286;2023-07-24T10:28:39;5.20;;;4.00;;
52854;SDS011;38719;51.418;7.286;2023-07-24T10:31:18;8.32;;;3.92;;
52854;SDS011;38719;51.418;7.286;2023-07-24T10:33:47;6.05;;;3.78;;
52854;SDS011;38719;51.418;7.286;2023-07-24T10:36:16;5.72;;;4.05;;
52854;SDS011;38719;51.418;7.286;2023-07-24T10:38:46;7.68;;;3.95;;
52854;SDS011;38719;51.418;7.286;2023-07-24T10:41:16;6.90;;;3.85;;
52854;SDS011;38719;51.418;7.286;2023-07-24T10:43:44;5.32;;;3.80;;
52854;SDS011;38719;51.418;7.286;2023-07-24T10:46:15;5.82;;;3.80;;
52854;SDS011;38719;51.418;7.286;2023-07-24T10:48:44;4.55;;;3.85;;
52854;SDS011;38719;51.418;7.286;2023-07-24T10:51:12;5.05;;;3.95;;
52854;SDS011;38719;51.418;7.286;2023-07-24T10:53:42;6.57;;;3.70;;
52854;SDS011;38719;51.418;7.286;2023-07-24T10:56:11;5.07;;;4.05;;
52854;SDS011;38719;51.418;7.286;2023-07-24T10:58:41;5.45;;;3.60;;
52854;SDS011;38719;51.418;7.286;2023-07-24T11:01:08;5.10;;;3.33;;
52854;SDS011;38719;51.418;7.286;2023-07-24T11:03:37;5.57;;;3.60;;
52854;SDS011;38719;51.418;7.286;2023-07-24T11:06:11;6.03;;;3.85;;
52854;SDS011;38719;51.418;7.286;2023-07-24T11:08:40;5.25;;;3.63;;
52854;SDS011;38719;51.418;7.286;2023-07-24T11:11:07;6.30;;;3.70;;
52854;SDS011;38719;51.418;7.286;2023-07-24T11:13:35;4.40;;;3.72;;
52854;SDS011;38719;51.418;7.286;2023-07-24T11:16:07;7.13;;;4.43;;
52854;SDS011;38719;51.418;7.286;2023-07-24T11:18:43;4.80;;;3.70;;
52854;SDS011;38719;51.418;7.286;2023-07-24T11:21:20;5.45;;;3.78;;
52854;SDS011;38719;51.418;7.286;2023-07-24T11:23:50;6.20;;;4.20;;
52854;SDS011;38719;51.418;7.286;2023-07-24T11:26:19;5.13;;;3.65;;
52854;SDS011;38719;51.418;7.286;2023-07-24T11:28:48;6.70;;;3.85;;
52854;SDS011;38719;51.418;7.286;2023-07-24T11:31:17;5.63;;;3.35;;
52854;SDS011;38719;51.418;7.286;2023-07-24T11:33:47;5.55;;;3.45;;
52854;SDS011;38719;51.418;7.286;2023-07-24T11:36:16;9.18;;;4.00;;
52854;SDS011;38719;51.418;7.286;2023-07-24T11:38:45;5.18;;;3.80;;
52854;SDS011;38719;51.418;7.286;2023-07-24T11:41:12;4.35;;;3.30;;
52854;SDS011;38719;51.418;7.286;2023-07-24T11:43:45;7.38;;;3.42;;
52854;SDS011;38719;51.418;7.286;2023-07-24T11:46:23;4.57;;;3.55;;
52854;SDS011;38719;51.418;7.286;2023-07-24T11:48:52;6.22;;;3.45;;
52854;SDS011;38719;51.418;7.286;2023-07-24T11:51:22;4.20;;;3.10;;
52854;SDS011;38719;51.418;7.286;2023-07-24T11:53:52;4.60;;;3.33;;
52854;SDS011;38719;51.418;7.286;2023-07-24T11:56:19;5.28;;;3.78;;
52854;SDS011;38719;51.418;7.286;2023-07-24T11:58:48;4.90;;;3.60;;
52854;SDS011;38719;51.418;7.286;2023-07-24T12:01:15;5.45;;;3.70;;
52854;SDS011;38719;51.418;7.286;2023-07-24T12:03:44;10.10;;;3.95;;
52854;SDS011;38719;51.418;7.286;2023-07-24T12:06:14;8.85;;;3.53;;
52854;SDS011;38719;51.418;7.286;2023-07-24T12:08:43;6.30;;;3.72;;
52854;SDS011;38719;51.418;7.286;2023-07-24T12:11:20;7.53;;;3.25;;
52854;SDS011;38719;51.418;7.286;2023-07-24T12:13:49;7.80;;;2.90;;
52854;SDS011;38719;51.418;7.286;2023-07-24T12:16:17;5.60;;;2.10;;
52854;SDS011;38719;51.418;7.286;2023-07-24T12:18:46;5.32;;;1.98;;
52854;SDS011;38719;51.418;7.286;2023-07-24T12:21:13;2.78;;;1.75;;
52854;SDS011;38719;51.418;7.286;2023-07-24T12:23:41;2.20;;;1.67;;
52854;SDS011;38719;51.418;7.286;2023-07-24T12:26:08;2.42;;;1.50;;
52854;SDS011;38719;51.418;7.286;2023-07-24T12:28:36;1.83;;;1.48;;
52854;SDS011;38719;51.418;7.286;2023-07-24T12:31:04;2.72;;;1.75;;
52854;SDS011;38719;51.418;7.286;2023-07-24T12:33:32;2.10;;;1.67;;
52854;SDS011;38719;51.418;7.286;2023-07-24T12:36:01;3.22;;;1.95;;
52854;SDS011;38719;51.418;7.286;2023-07-24T12:38:29;2.38;;;1.60;;
52854;SDS011;38719;51.418;7.286;2023-07-24T12:40:59;1.67;;;1.45;;
52854;SDS011;38719;51.418;7.286;2023-07-24T12:43:27;2.08;;;1.50;;
52854;SDS011;38719;51.418;7.286;2023-07-24T12:45:54;2.10;;;1.45;;
52854;SDS011;38719;51.418;7.286;2023-07-24T12:48:22;4.03;;;1.70;;
52854;SDS011;38719;51.418;7.286;2023-07-24T12:50:49;2.53;;;1.33;;
52854;SDS011;38719;51.418;7.286;2023-07-24T12:53:19;1.75;;;1.42;;
52854;SDS011;38719;51.418;7.286;2023-07-24T12:56:02;2.13;;;1.38;;
52854;SDS011;38719;51.418;7.286;2023-07-24T12:58:30;1.95;;;1.30;;
52854;SDS011;38719;51.418;7.286;2023-07-24T13:00:57;4.78;;;1.85;;
52854;SDS011;38719;51.418;7.286;2023-07-24T13:03:25;1.58;;;1.45;;
52854;SDS011;38719;51.418;7.286;2023-07-24T13:05:53;2.30;;;1.90;;
52854;SDS011;38719;51.418;7.286;2023-07-24T13:08:21;2.03;;;1.75;;
52854;SDS011;38719;51.418;7.286;2023-07-24T13:10:50;3.17;;;1.77;;
52854;SDS011;38719;51.418;7.286;2023-07-24T13:13:18;4.25;;;1.95;;
52854;SDS011;38719;51.418;7.286;2023-07-24T13:15:45;2.10;;;1.63;;
52854;SDS011;38719;51.418;7.286;2023-07-24T13:18:14;3.33;;;1.80;;
52854;SDS011;38719;51.418;7.286;2023-07-24T13:20:54;3.53;;;2.10;;
52854;SDS011;38719;51.418;7.286;2023-07-24T13:23:23;3.88;;;1.80;;
52854;SDS011;38719;51.418;7.286;2023-07-24T13:25:51;1.75;;;1.50;;
52854;SDS011;38719;51.418;7.286;2023-07-24T13:28:19;3.17;;;1.95;;
52854;SDS011;38719;51.418;7.286;2023-07-24T13:30:47;2.45;;;1.83;;
52854;SDS011;38719;51.418;7.286;2023-07-24T13:33:15;1.90;;;1.48;;
52854;SDS011;38719;51.418;7.286;2023-07-24T13:35:43;4.13;;;1.70;;
52854;SDS011;38719;51.418;7.286;2023-07-24T13:38:10;2.97;;;1.85;;
52854;SDS011;38719;51.418;7.286;2023-07-24T13:40:39;3.67;;;1.83;;
52854;SDS011;38719;51.418;7.286;2023-07-24T13:43:07;2.65;;;1.77;;
52854;SDS011;38719;51.418;7.286;2023-07-24T13:45:35;3.90;;;1.80;;
52854;SDS011;38719;51.418;7.286;2023-07-24T13:48:03;2.22;;;1.80;;
52854;SDS011;38719;51.418;7.286;2023-07-24T13:50:31;3.67;;;1.70;;
52854;SDS011;38719;51.418;7.286;2023-07-24T13:52:59;2.22;;;1.88;;
52854;SDS011;38719;51.418;7.286;2023-07-24T13:55:26;2.40;;;1.98;;
52854;SDS011;38719;51.418;7.286;2023-07-24T13:57:55;2.40;;;1.80;;
52854;SDS011;38719;51.418;7.286;2023-07-24T14:00:23;4.68;;;2.00;;
52854;SDS011;38719;51.418;7.286;2023-07-24T14:02:50;2.50;;;2.03;;
52854;SDS011;38719;51.418;7.286;2023-07-24T14:05:18;2.33;;;2.08;;
52854;SDS011;38719;51.418;7.286;2023-07-24T14:07:46;2.50;;;2.10;;
52854;SDS011;38719;51.418;7.286;2023-07-24T14:10:13;3.50;;;2.30;;
52854;SDS011;38719;51.418;7.286;2023-07-24T14:12:41;2.80;;;2.17;;
52854;SDS011;38719;51.418;7.286;2023-07-24T14:15:10;4.53;;;2.20;;
52854;SDS011;38719;51.418;7.286;2023-07-24T14:17:38;2.67;;;2.00;;
52854;SDS011;38719;51.418;7.286;2023-07-24T14:20:06;2.80;;;2.15;;
52854;SDS011;38719;51.418;7.286;2023-07-24T14:22:37;3.45;;;2.00;;
52854;SDS011;38719;51.418;7.286;2023-07-24T14:25:06;3.90;;;2.20;;
52854;SDS011;38719;51.418;7.286;2023-07-24T14:27:34;3.13;;;2.10;;
52854;SDS011;38719;51.418;7.286;2023-07-24T14:30:01;2.42;;;2.08;;
52854;SDS011;38719;51.418;7.286;2023-07-24T14:32:31;3.35;;;2.20;;
52854;SDS011;38719;51.418;7.286;2023-07-24T14:34:58;2.80;;;2.35;;
52854;SDS011;38719;51.418;7.286;2023-07-24T14:37:26;3.63;;;2.72;;
52854;SDS011;38719;51.418;7.286;2023-07-24T14:39:54;3.72;;;2.60;;
52854;SDS011;38719;51.418;7.286;2023-07-24T14:42:21;4.00;;;2.83;;
52854;SDS011;38719;51.418;7.286;2023-07-24T14:44:49;4.30;;;2.90;;
52854;SDS011;38719;51.418;7.286;2023-07-24T14:47:17;3.53;;;3.03;;
52854;SDS011;38719;51.418;7.286;2023-07-24T14:49:46;4.60;;;3.15;;
52854;SDS011;38719;51.418;7.286;2023-07-24T14:52:13;6.72;;;4.28;;
52854;SDS011;38719;51.418;7.286;2023-07-24T14:54:41;6.78;;;4.50;;
52854;SDS011;38719;51.418;7.286;2023-07-24T14:57:08;7.80;;;4.95;;
52854;SDS011;38719;51.418;7.286;2023-07-24T14:59:50;8.00;;;4.68;;